Time;durP1;ratioP1;P1;durP2;ratioP2;P2;SDS_P1;SDS_P2;PMS_P1;PMS_P2;Temp;Humidity;BMP_temperature;BMP_pressure;BME280_temperature;BME280_humidity;BME280_pressure;Samples;Min_cycle;Max_cycle;Signal;HPM_P1;HPM_P2
2022/07/16 00:02:48;;;;;;;2.92;2.10;;;15.90;99.90;;;;;;6278057;22;20069;-84
2022/07/16 00:05:13;;;;;;;2.58;2.03;;;15.90;99.90;;;;;;6253232;22;20374;-85
2022/07/16 00:07:39;;;;;;;2.95;2.08;;;15.90;99.90;;;;;;6252778;22;20041;-84
2022/07/16 00:10:05;;;;;;;3.00;2.03;;;15.80;99.90;;;;;;6252306;22;20033;-84
2022/07/16 00:12:31;;;;;;;3.25;2.30;;;15.90;99.90;;;;;;6277958;22;20011;-83
2022/07/16 00:14:58;;;;;;;3.55;1.88;;;15.80;99.90;;;;;;6278459;22;20099;-83
2022/07/16 00:17:23;;;;;;;2.92;2.17;;;15.80;99.90;;;;;;6277880;22;20007;-84
2022/07/16 00:19:49;;;;;;;3.95;2.45;;;15.70;99.90;;;;;;6252942;22;20498;-83
2022/07/16 00:22:15;;;;;;;2.97;2.10;;;15.70;99.90;;;;;;6250608;22;20537;-83
2022/07/16 00:24:40;;;;;;;2.83;1.90;;;15.70;99.90;;;;;;6278043;22;20014;-84
2022/07/16 00:27:06;;;;;;;3.88;2.58;;;15.60;99.90;;;;;;6278114;22;20513;-83
2022/07/16 00:29:32;;;;;;;3.15;2.35;;;15.60;99.90;;;;;;6278175;22;20410;-84
2022/07/16 00:31:57;;;;;;;3.45;2.20;;;15.50;99.90;;;;;;6252682;22;20015;-84
2022/07/16 00:34:23;;;;;;;4.45;2.50;;;15.50;99.90;;;;;;6253052;22;20007;-84
2022/07/16 00:36:49;;;;;;;3.53;2.58;;;15.50;99.90;;;;;;6280097;22;20474;-83
2022/07/16 00:39:16;;;;;;;3.20;2.50;;;15.50;99.90;;;;;;6254480;22;20340;-84
2022/07/16 00:41:43;;;;;;;3.58;2.47;;;15.50;99.90;;;;;;6254734;22;20014;-84
2022/07/16 00:44:11;;;;;;;4.15;2.58;;;15.50;99.90;;;;;;6255103;22;20011;-84
2022/07/16 00:46:38;;;;;;;2.92;2.40;;;15.50;99.90;;;;;;6255025;22;20474;-84
2022/07/16 00:49:04;;;;;;;3.58;2.45;;;15.50;99.90;;;;;;6253943;22;20443;-84
2022/07/16 00:51:31;;;;;;;3.13;2.80;;;15.50;99.90;;;;;;6280041;22;20478;-84
2022/07/16 00:53:57;;;;;;;3.22;2.40;;;15.40;99.90;;;;;;6254712;22;20090;-84
2022/07/16 00:56:24;;;;;;;4.30;2.67;;;15.40;99.90;;;;;;6254723;22;20094;-84
2022/07/16 00:58:50;;;;;;;3.50;2.58;;;15.40;99.90;;;;;;6253611;22;20011;-84
2022/07/16 01:01:17;;;;;;;4.93;2.80;;;15.40;99.90;;;;;;6254584;22;20003;-84
2022/07/16 01:03:44;;;;;;;3.30;2.50;;;15.40;99.90;;;;;;6276890;22;20011;-84
2022/07/16 01:06:11;;;;;;;4.82;2.60;;;15.40;99.90;;;;;;6254434;22;20052;-84
2022/07/16 01:08:41;;;;;;;5.70;2.92;;;15.30;99.90;;;;;;6253508;22;20011;-84
2022/07/16 01:11:10;;;;;;;3.65;2.60;;;15.40;99.90;;;;;;6254703;22;20090;-84
2022/07/16 01:13:38;;;;;;;4.78;2.80;;;15.30;99.90;;;;;;6279264;22;20378;-84
2022/07/16 01:16:05;;;;;;;4.50;2.78;;;15.20;99.90;;;;;;6254171;22;20007;-84
2022/07/16 01:18:30;;;;;;;4.80;2.65;;;15.30;99.90;;;;;;6254358;22;20043;-84
2022/07/16 01:20:56;;;;;;;3.22;2.72;;;15.20;99.90;;;;;;6253242;22;20026;-84
2022/07/16 01:23:23;;;;;;;3.28;2.63;;;15.20;99.90;;;;;;6253756;22;20110;-83
2022/07/16 01:25:50;;;;;;;3.67;2.90;;;15.20;99.90;;;;;;6253206;22;20018;-84
2022/07/16 01:28:16;;;;;;;3.97;2.88;;;15.30;99.90;;;;;;6254001;22;20011;-84
2022/07/16 01:30:42;;;;;;;5.28;2.75;;;15.20;99.90;;;;;;6280236;22;20391;-84
2022/07/16 01:33:26;;;;;;;3.95;3.10;;;15.20;99.90;;;;;;6279953;22;20451;-84
2022/07/16 01:35:55;;;;;;;6.28;3.47;;;15.30;99.90;;;;;;6254014;22;20076;-85
2022/07/16 01:38:21;;;;;;;5.53;4.07;;;15.30;99.90;;;;;;6279423;22;20090;-84
2022/07/16 01:40:46;;;;;;;5.75;3.63;;;15.20;99.90;;;;;;6254435;22;20043;-85
2022/07/16 01:43:18;;;;;;;6.22;3.90;;;15.20;99.90;;;;;;6254041;22;20443;-84
2022/07/16 01:45:44;;;;;;;4.95;3.85;;;15.10;99.90;;;;;;6253961;22;20022;-84
2022/07/16 01:48:12;;;;;;;3.90;3.15;;;15.10;99.90;;;;;;6253609;22;20043;-84
2022/07/16 01:50:39;;;;;;;5.13;4.00;;;15.10;99.90;;;;;;6254473;22;20011;-85
2022/07/16 01:53:06;;;;;;;5.20;4.35;;;15.00;99.90;;;;;;6253234;22;20011;-84
2022/07/16 01:55:33;;;;;;;5.32;3.90;;;15.00;99.90;;;;;;6253741;22;20057;-85
2022/07/16 01:57:59;;;;;;;6.00;3.65;;;14.90;99.90;;;;;;6253875;22;20471;-84
2022/07/16 02:00:25;;;;;;;7.47;4.15;;;15.00;99.90;;;;;;6254208;22;20007;-85
2022/07/16 02:02:51;;;;;;;6.32;4.22;;;14.90;99.90;;;;;;6278999;22;20396;-85
2022/07/16 02:05:16;;;;;;;5.78;4.00;;;15.10;99.90;;;;;;6253207;22;20455;-85
2022/07/16 02:07:42;;;;;;;4.88;4.00;;;15.00;99.90;;;;;;6253659;22;20015;-84
2022/07/16 02:10:08;;;;;;;6.47;4.28;;;15.00;99.90;;;;;;6253846;22;20061;-85
2022/07/16 02:12:33;;;;;;;7.35;4.40;;;15.00;99.90;;;;;;6253892;22;20008;-84
2022/07/16 02:14:59;;;;;;;7.65;4.43;;;15.00;99.90;;;;;;6253614;22;20064;-85
2022/07/16 02:17:25;;;;;;;7.18;4.75;;;15.10;99.90;;;;;;6253437;22;20007;-84
2022/07/16 02:19:51;;;;;;;7.38;4.72;;;15.00;99.90;;;;;;6253769;22;20056;-85
2022/07/16 02:22:16;;;;;;;7.30;4.55;;;15.10;99.90;;;;;;6253913;22;20011;-85
2022/07/16 02:24:42;;;;;;;5.75;4.18;;;15.20;99.90;;;;;;6253598;22;20026;-84
2022/07/16 02:27:07;;;;;;;4.72;3.67;;;15.10;99.90;;;;;;6253456;22;20014;-84
2022/07/16 02:29:33;;;;;;;5.35;3.50;;;15.10;99.90;;;;;;6253911;22;20455;-85
2022/07/16 02:31:59;;;;;;;5.55;3.53;;;15.10;99.90;;;;;;6279171;22;20016;-85
2022/07/16 02:34:25;;;;;;;4.15;3.25;;;15.10;99.90;;;;;;6279115;22;20008;-84
2022/07/16 02:36:51;;;;;;;6.90;3.17;;;15.20;99.90;;;;;;6279285;22;20015;-84
2022/07/16 02:39:16;;;;;;;4.10;2.63;;;15.10;99.90;;;;;;6253471;22;20447;-85
2022/07/16 02:41:42;;;;;;;4.45;2.33;;;15.10;99.90;;;;;;6253806;22;20011;-85
2022/07/16 02:44:08;;;;;;;5.07;2.40;;;15.10;99.90;;;;;;6253134;22;20078;-85
2022/07/16 02:46:33;;;;;;;6.15;2.38;;;15.00;99.90;;;;;;6253703;22;20038;-85
2022/07/16 02:48:59;;;;;;;3.10;1.92;;;15.00;99.90;;;;;;6253370;22;20018;-85
2022/07/16 02:51:25;;;;;;;3.95;2.60;;;14.90;99.90;;;;;;6253330;22;20064;-84
2022/07/16 02:53:51;;;;;;;2.53;2.13;;;15.00;99.90;;;;;;6253082;22;20015;-83
2022/07/16 02:56:16;;;;;;;3.17;2.08;;;14.90;99.90;;;;;;6253489;22;20018;-85
2022/07/16 02:58:42;;;;;;;2.95;2.22;;;14.90;99.90;;;;;;6252470;22;20038;-84
2022/07/16 03:01:08;;;;;;;2.92;1.80;;;14.90;99.90;;;;;;6279344;22;20007;-85
2022/07/16 03:03:34;;;;;;;3.08;1.77;;;14.80;99.90;;;;;;6253019;22;20007;-84
2022/07/16 03:05:59;;;;;;;2.92;1.85;;;14.70;99.90;;;;;;6253889;22;20011;-84
2022/07/16 03:08:25;;;;;;;4.45;2.30;;;14.90;99.90;;;;;;6253104;22;20011;-84
2022/07/16 03:10:50;;;;;;;3.00;2.17;;;14.70;99.90;;;;;;6253822;22;20018;-85
2022/07/16 03:13:16;;;;;;;4.20;1.90;;;14.80;99.90;;;;;;6253360;22;20018;-84
2022/07/16 03:15:42;;;;;;;3.00;1.88;;;14.70;99.90;;;;;;6252738;22;20141;-84
2022/07/16 03:18:07;;;;;;;2.33;1.90;;;14.60;99.90;;;;;;6252871;22;20458;-84
2022/07/16 03:20:33;;;;;;;3.22;1.83;;;14.70;99.90;;;;;;6253066;22;20003;-85
2022/07/16 03:22:59;;;;;;;3.40;2.10;;;14.60;99.90;;;;;;6253447;22;20007;-85
2022/07/16 03:25:24;;;;;;;5.20;2.40;;;14.60;99.90;;;;;;6278584;22;20029;-84
2022/07/16 03:27:50;;;;;;;4.80;2.10;;;14.50;99.90;;;;;;6277841;22;20497;-83
2022/07/16 03:30:17;;;;;;;2.80;2.22;;;14.60;99.90;;;;;;6253477;22;20478;-84
2022/07/16 03:32:43;;;;;;;3.20;2.08;;;14.50;99.90;;;;;;6278645;22;20082;-84
2022/07/16 03:35:10;;;;;;;3.47;2.70;;;14.50;99.90;;;;;;6252594;22;20380;-84
2022/07/16 03:38:57;;;;;;;5.65;2.60;;;14.50;99.90;;;;;;6278305;22;20069;-83
2022/07/16 03:40:22;;;;;;;3.22;2.33;;;14.50;99.90;;;;;;6278808;22;20015;-84
2022/07/16 03:42:48;;;;;;;3.20;2.78;;;14.60;99.90;;;;;;6253144;22;20008;-85
2022/07/16 03:45:14;;;;;;;4.68;2.92;;;14.50;99.90;;;;;;6278453;22;20011;-83
2022/07/16 03:47:39;;;;;;;6.13;3.17;;;14.60;99.90;;;;;;6252870;22;20373;-84
2022/07/16 03:50:06;;;;;;;4.68;3.40;;;14.50;99.90;;;;;;6253323;22;20011;-84
2022/07/16 03:52:31;;;;;;;6.32;3.08;;;14.50;99.90;;;;;;6278516;22;20011;-84
2022/07/16 03:54:57;;;;;;;4.53;2.40;;;14.50;99.90;;;;;;6278338;22;20061;-84
2022/07/16 03:57:22;;;;;;;2.92;2.38;;;14.50;99.90;;;;;;6252947;22;20014;-84
2022/07/16 03:59:48;;;;;;;3.17;2.28;;;14.40;99.90;;;;;;6252477;22;20011;-84
2022/07/16 04:02:14;;;;;;;5.20;2.53;;;14.60;99.90;;;;;;6253015;22;20007;-84
2022/07/16 04:04:39;;;;;;;2.90;2.17;;;14.60;99.90;;;;;;6252670;22;20007;-84
2022/07/16 04:07:05;;;;;;;3.90;2.67;;;14.50;99.90;;;;;;6253217;22;20347;-84
2022/07/16 04:09:30;;;;;;;5.68;3.03;;;14.50;99.90;;;;;;6252460;22;20026;-84
2022/07/16 04:11:56;;;;;;;4.68;2.60;;;14.50;99.90;;;;;;6252970;22;20012;-84
2022/07/16 04:14:22;;;;;;;2.90;2.40;;;14.60;99.90;;;;;;6278231;22;20140;-85
2022/07/16 04:16:47;;;;;;;4.18;2.50;;;14.60;99.90;;;;;;6252756;22;20082;-84
2022/07/16 04:19:13;;;;;;;5.00;2.65;;;14.60;99.90;;;;;;6278204;22;20397;-85
2022/07/16 04:21:39;;;;;;;4.85;2.70;;;14.50;99.90;;;;;;6278135;22;20068;-83
2022/07/16 04:24:05;;;;;;;4.63;2.60;;;14.50;99.90;;;;;;6277622;22;20038;-85
2022/07/16 04:26:30;;;;;;;3.58;2.60;;;14.40;99.90;;;;;;6277876;22;20015;-84
2022/07/16 04:28:56;;;;;;;3.83;2.50;;;14.40;99.90;;;;;;6252411;22;20007;-84
2022/07/16 04:31:23;;;;;;;4.93;2.90;;;14.40;99.90;;;;;;6253036;22;20021;-84
2022/07/16 04:33:48;;;;;;;3.60;2.58;;;14.40;99.90;;;;;;6277852;22;20011;-85
2022/07/16 04:36:14;;;;;;;4.72;3.00;;;14.40;99.90;;;;;;6278472;22;20061;-84
2022/07/16 04:38:40;;;;;;;3.65;2.97;;;14.30;99.90;;;;;;6252215;22;20039;-84
2022/07/16 04:41:05;;;;;;;5.57;2.63;;;14.40;99.90;;;;;;6253115;22;20520;-84
2022/07/16 04:43:31;;;;;;;8.13;2.70;;;14.50;99.90;;;;;;6252585;22;20129;-85
2022/07/16 04:45:57;;;;;;;4.68;2.15;;;14.50;99.90;;;;;;6277678;22;20011;-84
2022/07/16 04:48:22;;;;;;;2.78;2.00;;;14.60;99.90;;;;;;6252287;22;20112;-84
2022/07/16 04:50:48;;;;;;;6.38;2.40;;;14.60;99.90;;;;;;6278319;22;20014;-84
2022/07/16 04:53:14;;;;;;;2.60;1.75;;;14.80;99.90;;;;;;6252236;22;20018;-83
2022/07/16 04:55:39;;;;;;;5.45;2.30;;;14.90;99.90;;;;;;6252050;22;20385;-84
2022/07/16 04:58:05;;;;;;;4.10;2.08;;;15.20;99.90;;;;;;6278336;22;20340;-84
2022/07/16 05:00:31;;;;;;;4.63;2.20;;;15.30;99.90;;;;;;6253311;22;20035;-84
2022/07/16 05:02:56;;;;;;;3.10;1.90;;;15.50;99.90;;;;;;6252836;22;20110;-84
2022/07/16 05:05:23;;;;;;;3.63;1.83;;;15.70;99.90;;;;;;6251882;22;20022;-84
2022/07/16 05:07:49;;;;;;;3.22;1.70;;;15.80;99.90;;;;;;6252790;22;20053;-84
2022/07/16 05:10:15;;;;;;;4.57;2.30;;;16.10;99.90;;;;;;6278359;22;20011;-84
2022/07/16 05:12:41;;;;;;;4.28;2.30;;;16.10;99.90;;;;;;6278036;22;20015;-84
2022/07/16 05:15:08;;;;;;;3.35;1.83;;;16.30;99.90;;;;;;6251870;22;20015;-84
2022/07/16 05:17:33;;;;;;;4.45;1.60;;;16.30;99.90;;;;;;6252388;22;20007;-84
2022/07/16 05:19:59;;;;;;;4.15;1.60;;;16.50;99.90;;;;;;6278194;22;20082;-84
2022/07/16 05:22:25;;;;;;;3.95;1.70;;;16.40;99.90;;;;;;6278914;22;20140;-84
2022/07/16 05:24:50;;;;;;;4.40;1.40;;;16.50;99.90;;;;;;6253648;22;20082;-84
2022/07/16 05:27:16;;;;;;;2.95;1.15;;;16.60;99.90;;;;;;6279562;22;20007;-84
2022/07/16 05:29:41;;;;;;;2.65;1.15;;;16.70;99.90;;;;;;6280544;22;20015;-84
2022/07/16 05:32:07;;;;;;;2.47;1.05;;;16.70;99.90;;;;;;6279908;22;20515;-84
2022/07/16 05:34:33;;;;;;;4.20;1.50;;;16.70;99.90;;;;;;6254152;22;20478;-84
2022/07/16 05:36:58;;;;;;;4.20;1.00;;;16.80;99.90;;;;;;6278891;22;20047;-84
2022/07/16 05:39:24;;;;;;;3.05;1.10;;;16.80;99.90;;;;;;6254930;22;20136;-84
2022/07/16 05:41:50;;;;;;;4.20;0.90;;;16.80;99.90;;;;;;6253764;22;20007;-84
2022/07/16 05:44:15;;;;;;;1.73;0.90;;;16.70;99.90;;;;;;6254085;22;20003;-84
2022/07/16 05:46:41;;;;;;;2.55;1.27;;;16.70;99.90;;;;;;6254314;22;20033;-84
2022/07/16 05:49:07;;;;;;;1.88;1.08;;;16.60;99.90;;;;;;6254309;22;20480;-84
2022/07/16 05:51:32;;;;;;;4.50;0.90;;;16.60;99.90;;;;;;6254410;22;20037;-84
2022/07/16 05:53:58;;;;;;;2.28;0.98;;;16.60;99.90;;;;;;6253761;22;20007;-85
2022/07/16 05:56:24;;;;;;;1.95;0.90;;;16.60;99.90;;;;;;6279294;22;20088;-85
2022/07/16 05:58:49;;;;;;;3.53;1.35;;;16.50;99.90;;;;;;6254462;22;20452;-85
2022/07/16 06:01:15;;;;;;;2.65;1.00;;;16.50;99.90;;;;;;6253985;22;20091;-84
2022/07/16 06:03:40;;;;;;;2.22;0.70;;;16.40;99.90;;;;;;6252895;22;20470;-84
2022/07/16 06:06:06;;;;;;;3.00;1.13;;;16.30;99.90;;;;;;6279317;22;20015;-84
2022/07/16 06:08:32;;;;;;;3.20;0.90;;;16.10;99.90;;;;;;6279580;22;20015;-83
2022/07/16 06:10:59;;;;;;;1.05;0.50;;;15.90;99.90;;;;;;6253206;22;20088;-84
2022/07/16 06:13:25;;;;;;;2.08;0.85;;;15.80;99.90;;;;;;6253739;22;20011;-84
2022/07/16 06:15:50;;;;;;;3.47;0.90;;;15.70;99.90;;;;;;6253611;22;20328;-83
2022/07/16 06:18:17;;;;;;;2.25;0.77;;;15.60;99.90;;;;;;6253832;22;20022;-84
2022/07/16 06:20:42;;;;;;;4.88;1.00;;;15.50;99.90;;;;;;6278579;22;20099;-84
2022/07/16 06:23:08;;;;;;;3.55;1.02;;;15.50;99.90;;;;;;6253874;22;20039;-84
2022/07/16 06:25:37;;;;;;;3.03;0.73;;;15.50;99.90;;;;;;6279063;22;20068;-84
2022/07/16 06:28:03;;;;;;;5.82;1.00;;;15.40;99.90;;;;;;6253600;22;20022;-84
2022/07/16 06:30:29;;;;;;;1.77;0.90;;;15.30;99.90;;;;;;6278072;22;20011;-83
2022/07/16 06:32:55;;;;;;;2.38;0.82;;;15.30;99.90;;;;;;6253868;22;20015;-83
2022/07/16 06:35:21;;;;;;;1.48;0.70;;;15.30;99.90;;;;;;6253930;22;20316;-84
2022/07/16 06:37:47;;;;;;;3.08;0.75;;;15.20;99.90;;;;;;6254235;22;20046;-84
2022/07/16 06:40:13;;;;;;;2.92;0.63;;;15.30;99.90;;;;;;6253235;22;20011;-83
2022/07/16 06:42:38;;;;;;;3.83;0.85;;;15.20;99.90;;;;;;6276525;22;20364;-83
2022/07/16 06:45:04;;;;;;;1.75;0.70;;;15.30;99.90;;;;;;6252396;22;20007;-84
2022/07/16 06:47:30;;;;;;;4.75;1.25;;;15.20;99.90;;;;;;6252632;22;20022;-85
2022/07/16 06:49:56;;;;;;;2.88;0.80;;;15.20;99.90;;;;;;6253813;22;20008;-85
2022/07/16 06:52:21;;;;;;;2.50;0.90;;;15.20;99.90;;;;;;6279085;22;20045;-84
2022/07/16 06:54:47;;;;;;;3.22;1.00;;;15.20;99.90;;;;;;6252972;22;20018;-84
2022/07/16 06:57:13;;;;;;;3.20;0.82;;;15.40;99.90;;;;;;6253351;22;20015;-82
2022/07/16 06:59:38;;;;;;;3.90;0.90;;;15.30;99.90;;;;;;6252811;22;20003;-84
2022/07/16 07:02:04;;;;;;;4.00;0.90;;;15.40;99.90;;;;;;6252793;22;20381;-81
2022/07/16 07:04:29;;;;;;;4.25;0.90;;;15.50;99.90;;;;;;6253079;22;20015;-83
2022/07/16 07:06:58;;;;;;;3.55;0.68;;;15.70;99.90;;;;;;6253330;22;20478;-83
2022/07/16 07:09:27;;;;;;;3.47;1.23;;;15.90;99.90;;;;;;6251282;22;20015;-82
2022/07/16 07:11:52;;;;;;;1.30;0.63;;;16.00;99.90;;;;;;6252168;22;20022;-85
2022/07/16 07:14:18;;;;;;;2.83;0.70;;;16.20;99.90;;;;;;6252633;22;20011;-84
2022/07/16 07:16:44;;;;;;;1.13;0.63;;;16.30;99.90;;;;;;6252345;22;20018;-84
2022/07/16 07:19:09;;;;;;;2.67;0.73;;;16.40;99.90;;;;;;6251454;22;20052;-85
2022/07/16 07:21:35;;;;;;;3.63;0.57;;;16.30;99.90;;;;;;6252802;22;20443;-84
2022/07/16 07:24:00;;;;;;;3.25;0.73;;;16.20;99.90;;;;;;6277542;22;20007;-84
2022/07/16 07:26:26;;;;;;;4.90;0.85;;;16.20;99.90;;;;;;6253392;22;20411;-85
2022/07/16 07:28:52;;;;;;;2.28;0.70;;;16.20;99.90;;;;;;6278803;22;20046;-85
2022/07/16 07:31:18;;;;;;;2.30;0.77;;;16.30;99.90;;;;;;6253536;22;20022;-85
2022/07/16 07:33:43;;;;;;;3.10;0.77;;;16.60;99.90;;;;;;6253201;22;20015;-85
2022/07/16 07:36:09;;;;;;;3.60;0.93;;;16.90;99.90;;;;;;6253513;22;20447;-86
2022/07/16 07:38:35;;;;;;;1.40;0.50;;;17.30;99.90;;;;;;6253084;22;20039;-85
2022/07/16 07:41:01;;;;;;;2.75;0.50;;;17.50;99.90;;;;;;6253406;22;20022;-84
2022/07/16 07:43:27;;;;;;;3.92;0.70;;;17.80;99.90;;;;;;6252734;22;20003;-84
2022/07/16 07:45:52;;;;;;;2.63;0.80;;;17.90;99.90;;;;;;6252311;22;20050;-81
2022/07/16 07:48:18;;;;;;;2.17;0.70;;;17.90;99.90;;;;;;6252866;22;20011;-83
2022/07/16 07:50:44;;;;;;;4.13;0.55;;;17.90;99.90;;;;;;6253533;22;20011;-84
2022/07/16 07:53:10;;;;;;;5.00;0.75;;;17.90;99.90;;;;;;6278733;22;20054;-84
2022/07/16 07:55:37;;;;;;;2.90;0.95;;;17.90;99.90;;;;;;6252839;22;20051;-84
2022/07/16 07:58:03;;;;;;;1.38;0.50;;;17.90;99.90;;;;;;6278735;22;20011;-84
2022/07/16 08:00:29;;;;;;;2.35;0.57;;;18.10;99.90;;;;;;6253253;22;20007;-84
2022/07/16 08:02:55;;;;;;;3.20;0.50;;;18.30;99.90;;;;;;6253123;22;20455;-87
2022/07/16 08:05:21;;;;;;;2.47;0.50;;;18.70;99.90;;;;;;6252664;22;20016;-83
2022/07/16 08:07:47;;;;;;;2.63;0.68;;;19.30;99.90;;;;;;6278528;22;20011;-83
2022/07/16 08:10:13;;;;;;;2.53;0.77;;;19.40;99.90;;;;;;6278763;22;20359;-84
2022/07/16 08:12:40;;;;;;;3.03;0.50;;;19.30;99.90;;;;;;6253024;22;20021;-84
2022/07/16 08:15:06;;;;;;;2.85;0.70;;;19.20;99.90;;;;;;6278056;22;20056;-83
2022/07/16 08:17:32;;;;;;;4.45;0.82;;;19.10;99.90;;;;;;6278494;22;20343;-83
2022/07/16 08:19:57;;;;;;;2.58;0.70;;;18.90;99.90;;;;;;6278766;22;20086;-85
2022/07/16 08:22:23;;;;;;;2.33;0.60;;;18.70;99.90;;;;;;6253480;22;20065;-84
2022/07/16 08:27:34;;;;;;;2.55;0.82;;;18.40;99.90;;;;;;6278490;22;20505;-83
2022/07/16 08:29:59;;;;;;;1.80;0.60;;;18.30;99.90;;;;;;6278737;22;20015;-84
2022/07/16 08:32:25;;;;;;;2.25;0.50;;;18.60;99.90;;;;;;6278328;22;20018;-84
2022/07/16 08:34:51;;;;;;;1.95;0.50;;;19.20;99.90;;;;;;6252426;22;20348;-84
2022/07/16 08:37:36;;;;;;;2.88;0.50;;;20.00;99.90;;;;;;6253020;22;20015;-83
2022/07/16 08:40:08;;;;;;;2.67;0.60;;;20.90;99.90;;;;;;6253036;22;20007;-83
2022/07/16 08:42:35;;;;;;;1.08;0.40;;;21.50;99.90;;;;;;6252693;22;20007;-84
2022/07/16 08:45:03;;;;;;;1.08;0.40;;;21.40;99.90;;;;;;6252574;22;20090;-84
2022/07/16 08:47:30;;;;;;;1.70;0.47;;;21.10;99.10;;;;;;6252608;22;20003;-84
2022/07/16 08:49:58;;;;;;;1.80;0.40;;;20.70;98.90;;;;;;6252906;22;20086;-83
2022/07/16 08:52:27;;;;;;;1.77;0.30;;;20.40;98.20;;;;;;6252318;22;20081;-84
2022/07/16 08:54:54;;;;;;;2.13;0.40;;;20.10;97.60;;;;;;6253348;22;20018;-84
2022/07/16 08:57:20;;;;;;;0.63;0.30;;;20.00;97.50;;;;;;6254275;22;20011;-84
2022/07/16 08:59:46;;;;;;;2.05;0.50;;;20.30;98.20;;;;;;6254492;22;20007;-87
2022/07/16 09:02:13;;;;;;;1.42;0.30;;;21.10;97.60;;;;;;6280255;22;20390;-85
2022/07/16 09:04:39;;;;;;;0.88;0.43;;;21.70;96.10;;;;;;6255413;22;20003;-86
2022/07/16 09:07:04;;;;;;;1.70;0.40;;;21.90;93.10;;;;;;6255155;22;20014;-84
2022/07/16 09:09:30;;;;;;;2.63;0.40;;;21.80;90.70;;;;;;6254535;22;20448;-84
2022/07/16 09:11:55;;;;;;;1.05;0.40;;;21.50;90.60;;;;;;6280037;22;20014;-84
2022/07/16 09:14:21;;;;;;;3.45;0.30;;;21.30;91.10;;;;;;6254853;22;20012;-83
2022/07/16 09:16:50;;;;;;;2.85;0.73;;;21.10;89.80;;;;;;6280436;22;20026;-84
2022/07/16 09:19:18;;;;;;;1.88;0.40;;;20.90;90.90;;;;;;6254528;22;20007;-84
2022/07/16 09:22:07;;;;;;;2.53;0.38;;;21.20;92.70;;;;;;6254360;22;20090;-84
2022/07/16 09:24:45;;;;;;;2.60;0.40;;;21.70;88.30;;;;;;6254531;22;20007;-84
2022/07/16 09:27:12;;;;;;;2.17;0.30;;;22.40;92.10;;;;;;6254578;22;20049;-85
2022/07/16 09:29:58;;;;;;;3.35;0.65;;;22.90;90.90;;;;;;6254414;22;20019;-86
2022/07/16 09:32:28;;;;;;;1.77;0.50;;;23.50;87.00;;;;;;6280060;22;20037;-84
2022/07/16 09:35:05;;;;;;;2.05;0.50;;;24.10;88.50;;;;;;6254688;22;20037;-85
2022/07/16 09:37:51;;;;;;;1.75;0.40;;;24.50;78.50;;;;;;6254800;22;20022;-85
2022/07/16 09:40:38;;;;;;;1.25;0.47;;;24.80;76.20;;;;;;6254475;22;20008;-85
2022/07/16 09:43:13;;;;;;;1.52;0.50;;;25.30;74.20;;;;;;6254110;22;20011;-84
2022/07/16 09:45:40;;;;;;;1.98;0.50;;;25.40;70.70;;;;;;6254431;22;20022;-84
2022/07/16 09:48:22;;;;;;;2.60;0.70;;;25.10;73.30;;;;;;6280215;22;20022;-85
2022/07/16 09:50:49;;;;;;;2.73;0.40;;;25.00;70.80;;;;;;6254045;22;20018;-84
2022/07/16 09:53:17;;;;;;;2.88;0.50;;;24.90;75.00;;;;;;6253705;22;20099;-84
2022/07/16 09:56:05;;;;;;;1.73;0.70;;;24.90;74.80;;;;;;6279867;22;20371;-85
2022/07/16 09:58:32;;;;;;;2.63;0.45;;;24.60;69.10;;;;;;6254691;22;20444;-85
2022/07/16 10:00:58;;;;;;;2.63;0.50;;;24.00;71.10;;;;;;6253711;22;20007;-85
2022/07/16 10:03:25;;;;;;;2.10;0.40;;;23.70;72.60;;;;;;6278792;22;20014;-86
2022/07/16 10:05:51;;;;;;;2.22;0.40;;;24.00;73.70;;;;;;6254390;22;20399;-85
2022/07/16 10:08:18;;;;;;;1.92;0.45;;;24.50;71.70;;;;;;6279331;22;20015;-85
2022/07/16 10:10:46;;;;;;;1.45;0.40;;;24.90;68.80;;;;;;6280394;22;20518;-85
2022/07/16 10:13:13;;;;;;;2.45;0.40;;;24.90;69.00;;;;;;6253323;22;20019;-85
2022/07/16 10:15:40;;;;;;;2.72;0.50;;;24.70;68.70;;;;;;6279750;22;20011;-85
2022/07/16 10:18:34;;;;;;;2.25;0.50;;;24.20;68.20;;;;;;6254126;22;20082;-85
2022/07/16 10:21:15;;;;;;;2.88;0.63;;;23.70;66.10;;;;;;6254219;22;20011;-85
2022/07/16 10:23:44;;;;;;;1.67;0.47;;;23.30;69.50;;;;;;6278721;22;20061;-84
2022/07/16 10:26:15;;;;;;;2.35;0.63;;;23.30;71.50;;;;;;6254028;22;20448;-86
2022/07/16 10:28:47;;;;;;;3.75;0.55;;;23.40;70.50;;;;;;6254248;22;20007;-85
2022/07/16 10:31:40;;;;;;;1.63;0.30;;;23.40;70.20;;;;;;6278909;22;20100;-85
2022/07/16 10:34:15;;;;;;;2.33;0.50;;;23.20;64.80;;;;;;6253957;22;20016;-85
2022/07/16 10:36:54;;;;;;;1.38;0.50;;;22.80;67.40;;;;;;6254006;22;20059;-84
2022/07/16 10:39:22;;;;;;;1.73;0.52;;;22.50;68.20;;;;;;6254007;22;20011;-85
2022/07/16 10:41:53;;;;;;;2.75;0.50;;;22.40;69.20;;;;;;6253221;22;20018;-86
2022/07/16 10:44:22;;;;;;;1.15;0.47;;;22.50;68.80;;;;;;6253448;22;20038;-85
2022/07/16 10:47:00;;;;;;;2.13;0.50;;;22.90;69.90;;;;;;6279447;22;20386;-85
2022/07/16 10:49:27;;;;;;;2.03;0.40;;;23.40;69.50;;;;;;6254095;22;20396;-85
2022/07/16 10:51:57;;;;;;;1.88;0.52;;;24.00;70.70;;;;;;6251347;22;20066;-83
2022/07/16 10:54:49;;;;;;;2.80;0.50;;;24.70;69.30;;;;;;6252795;22;20023;-86
2022/07/16 10:57:16;;;;;;;2.08;0.50;;;25.10;64.20;;;;;;6258649;22;20332;-86
2022/07/16 10:59:46;;;;;;;2.30;0.77;;;25.40;67.30;;;;;;6252409;22;20456;-86
2022/07/16 11:02:13;;;;;;;2.25;0.52;;;25.60;64.50;;;;;;6252915;22;20011;-84
2022/07/16 11:04:44;;;;;;;1.58;0.40;;;25.80;64.20;;;;;;6251439;22;20517;-82
2022/07/16 11:07:11;;;;;;;3.22;0.55;;;25.60;62.00;;;;;;6278751;22;20095;-83
2022/07/16 11:09:39;;;;;;;1.38;0.50;;;25.20;63.90;;;;;;6278997;22;20007;-82
2022/07/16 11:12:30;;;;;;;2.20;0.50;;;24.90;64.50;;;;;;6251695;22;20011;-81
2022/07/16 11:14:58;;;;;;;2.13;0.50;;;24.30;62.30;;;;;;6251977;22;20018;-82
2022/07/16 11:17:29;;;;;;;5.95;1.45;;;23.90;64.40;;;;;;6252517;22;20011;-82
2022/07/16 11:20:00;;;;;;;3.80;0.70;;;23.90;65.90;;;;;;6252010;22;20373;-82
2022/07/16 11:22:28;;;;;;;1.70;0.50;;;24.40;66.10;;;;;;6278283;22;20008;-84
2022/07/16 11:24:59;;;;;;;2.40;0.60;;;24.70;65.50;;;;;;6252371;22;20003;-83
2022/07/16 11:27:26;;;;;;;2.75;0.40;;;24.60;63.80;;;;;;6253276;22;20325;-84
2022/07/16 11:50:34;;;;;;;2.58;0.60;;;26.20;64.20;;;;;;6286806;22;20025;-84
2022/07/16 11:53:00;;;;;;;2.83;0.50;;;26.20;65.10;;;;;;6278195;22;20003;-83
2022/07/16 11:55:26;;;;;;;2.78;0.70;;;26.20;63.10;;;;;;6253212;22;20069;-85
2022/07/16 11:57:52;;;;;;;1.65;0.50;;;26.10;63.00;;;;;;6252023;22;20011;-85
2022/07/16 12:00:17;;;;;;;1.52;0.45;;;25.90;62.90;;;;;;6252589;22;20090;-84
2022/07/16 12:02:44;;;;;;;2.58;0.55;;;25.80;61.60;;;;;;6277580;22;20035;-85
2022/07/16 12:05:10;;;;;;;3.42;0.50;;;26.00;63.10;;;;;;6252149;22;20007;-85
2022/07/16 12:07:36;;;;;;;3.42;0.63;;;26.30;63.90;;;;;;6253293;22;20469;-86
2022/07/16 12:10:05;;;;;;;4.10;0.90;;;26.60;62.10;;;;;;6278454;22;20007;-86
2022/07/16 12:12:34;;;;;;;1.80;0.38;;;27.00;62.60;;;;;;6251558;22;20011;-86
2022/07/16 12:15:12;;;;;;;2.50;0.57;;;27.20;61.00;;;;;;6252301;22;20022;-86
2022/07/16 12:17:45;;;;;;;1.77;0.65;;;27.00;59.00;;;;;;6252063;22;20463;-86
2022/07/16 12:20:26;;;;;;;2.75;0.60;;;26.30;59.50;;;;;;6252406;22;20423;-86
2022/07/16 12:22:58;;;;;;;1.60;0.40;;;25.80;60.80;;;;;;6278307;22;20054;-86
2022/07/16 12:25:45;;;;;;;2.80;0.65;;;26.00;62.00;;;;;;6278691;22;20290;-86
2022/07/16 12:28:16;;;;;;;3.35;0.60;;;26.40;59.70;;;;;;6252723;22;20049;-86
2022/07/16 12:30:45;;;;;;;1.70;0.50;;;26.60;60.10;;;;;;6253261;22;20012;-86
2022/07/16 12:33:23;;;;;;;3.67;0.77;;;26.40;61.10;;;;;;6281981;22;20022;-85
2022/07/16 12:35:55;;;;;;;1.55;0.55;;;26.30;59.20;;;;;;6256235;22;20050;-86
2022/07/16 12:38:37;;;;;;;;;;;26.40;60.00;;;;;;6255539;22;20007;-85
2022/07/16 12:41:05;;;;;;;4.72;0.60;;;26.60;59.30;;;;;;6281967;22;20390;-86
2022/07/16 12:43:31;;;;;;;4.00;1.00;;;26.90;61.10;;;;;;6280651;22;20011;-87
2022/07/16 12:45:59;;;;;;;1.38;0.40;;;27.20;60.40;;;;;;6256519;22;20012;-86
2022/07/16 12:48:27;;;;;;;3.22;0.50;;;27.30;59.50;;;;;;6282095;22;20007;-87
2022/07/16 12:50:53;;;;;;;3.35;0.52;;;26.90;58.10;;;;;;6281350;22;20281;-86
2022/07/16 12:53:18;;;;;;;1.13;0.50;;;26.60;59.40;;;;;;6280761;22;20015;-86
2022/07/16 13:01:12;;;;;;;3.13;0.68;;;27.30;60.30;;;;;;6280849;22;20474;-86
2022/07/16 13:03:38;;;;;;;3.35;0.63;;;27.50;59.40;;;;;;6254724;22;20012;-86
2022/07/16 13:06:03;;;;;;;4.07;0.73;;;27.80;59.10;;;;;;6255480;22;20111;-85
2022/07/16 13:08:29;;;;;;;1.33;0.47;;;27.90;58.60;;;;;;6255923;22;20011;-85
2022/07/16 13:10:54;;;;;;;4.75;0.90;;;28.10;58.30;;;;;;6256574;22;20060;-86
2022/07/16 13:13:20;;;;;;;2.03;0.68;;;28.10;57.70;;;;;;6255148;22;20473;-87
2022/07/16 13:15:46;;;;;;;1.92;0.60;;;28.00;56.80;;;;;;6255684;22;20152;-86
2022/07/16 13:18:11;;;;;;;2.15;0.60;;;27.80;57.20;;;;;;6255785;22;20039;-87
2022/07/16 13:20:37;;;;;;;3.08;0.60;;;27.70;57.10;;;;;;6256229;22;20343;-88